Time;durP1;ratioP1;P1;durP2;ratioP2;P2;SDS_P1;SDS_P2;PMS_P1;PMS_P2;Temp;Humidity;BMP_temperature;BMP_pressure;BME280_temperature;BME280_humidity;BME280_pressure;Samples;Min_cycle;Max_cycle;Signal;HPM_P1;HPM_P2
2022/01/29 00:00:07;;;;;;;0.00;0.00;;;10.70;99.90;;;;;;6229817;23;20404;-77
2022/01/29 00:02:32;;;;;;;0.00;0.00;;;10.70;99.90;;;;;;6216705;23;20011;-77
2022/01/29 00:04:58;;;;;;;0.00;0.00;;;10.70;99.90;;;;;;6216948;23;20008;-76
2022/01/29 00:07:24;;;;;;;0.00;0.00;;;10.60;99.90;;;;;;6215702;23;19993;-75
2022/01/29 00:09:49;;;;;;;0.00;0.00;;;10.60;99.90;;;;;;6217205;23;20068;-75
2022/01/29 00:12:15;;;;;;;0.00;0.00;;;10.60;99.90;;;;;;6215156;23;20441;-75
2022/01/29 00:14:41;;;;;;;0.00;0.00;;;10.60;99.90;;;;;;6217039;23;20005;-75
2022/01/29 00:17:06;;;;;;;0.00;0.00;;;10.60;99.90;;;;;;6215116;23;20004;-76
2022/01/29 00:19:32;;;;;;;0.00;0.00;;;10.60;99.90;;;;;;6218814;23;20329;-75
2022/01/29 00:22:00;;;;;;;0.00;0.00;;;10.60;99.90;;;;;;6217677;23;20004;-75
2022/01/29 00:24:25;;;;;;;0.00;0.00;;;10.60;99.90;;;;;;6218207;23;20027;-75
2022/01/29 00:26:51;;;;;;;0.00;0.00;;;10.60;99.90;;;;;;6219903;23;20057;-76
2022/01/29 00:29:20;;;;;;;0.00;0.00;;;10.60;99.90;;;;;;6217961;23;20031;-75
2022/01/29 00:31:47;;;;;;;0.00;0.00;;;10.60;99.90;;;;;;6218024;23;20107;-75
2022/01/29 00:34:14;;;;;;;0.00;0.00;;;10.60;99.90;;;;;;6218306;23;19993;-78
2022/01/29 00:36:39;;;;;;;0.00;0.00;;;10.60;99.90;;;;;;6242833;23;20004;-74
2022/01/29 00:39:06;;;;;;;0.00;0.00;;;10.50;99.90;;;;;;6218227;23;20003;-78
2022/01/29 00:41:31;;;;;;;0.00;0.00;;;10.50;99.90;;;;;;6216302;23;20004;-77
2022/01/29 00:43:58;;;;;;;0.00;0.00;;;10.50;99.90;;;;;;6219085;23;20072;-78
2022/01/29 00:46:23;;;;;;;;;;;10.50;99.90;;;;;;6217018;23;20004;-77
2022/01/29 00:48:49;;;;;;;0.00;0.00;;;10.50;99.90;;;;;;6218430;23;20282;-76
2022/01/29 00:51:15;;;;;;;0.00;0.00;;;10.50;99.90;;;;;;6219899;23;20005;-77
2022/01/29 00:53:40;;;;;;;0.00;0.00;;;10.50;99.90;;;;;;6220394;23;20421;-75
2022/01/29 00:56:07;;;;;;;0.00;0.00;;;10.50;99.90;;;;;;6219313;23;20017;-75
2022/01/29 00:58:36;;;;;;;0.00;0.00;;;10.50;99.90;;;;;;6220420;23;20003;-76
2022/01/29 01:01:02;;;;;;;0.00;0.00;;;10.50;99.90;;;;;;6219251;23;20009;-76
2022/01/29 01:03:28;;;;;;;0.00;0.00;;;10.50;99.90;;;;;;6218066;23;19996;-77
2022/01/29 01:05:54;;;;;;;0.00;0.00;;;10.50;99.90;;;;;;6219310;23;20039;-77
2022/01/29 01:08:19;;;;;;;0.00;0.00;;;10.50;99.90;;;;;;6218281;23;19993;-75
2022/01/29 01:10:45;;;;;;;0.00;0.00;;;10.50;99.90;;;;;;6218345;23;20106;-76
2022/01/29 01:13:12;;;;;;;0.00;0.00;;;10.50;99.90;;;;;;6218851;23;20001;-76
2022/01/29 01:15:38;;;;;;;0.00;0.00;;;10.50;99.90;;;;;;6219948;23;20095;-76
2022/01/29 01:18:03;;;;;;;0.00;0.00;;;10.50;99.90;;;;;;6223424;23;20044;-77
2022/01/29 01:20:29;;;;;;;0.00;0.00;;;10.50;99.90;;;;;;6225370;23;20000;-78
2022/01/29 01:22:55;;;;;;;0.00;0.00;;;10.50;99.90;;;;;;6222691;23;20429;-75
2022/01/29 01:25:20;;;;;;;0.00;0.00;;;10.50;99.90;;;;;;6226400;23;20075;-76
2022/01/29 01:27:46;;;;;;;0.00;0.00;;;10.50;99.90;;;;;;6227940;23;19996;-76
2022/01/29 01:30:12;;;;;;;0.00;0.00;;;10.50;99.90;;;;;;6224383;23;20480;-76
2022/01/29 01:32:38;;;;;;;0.00;0.00;;;10.50;99.90;;;;;;6225702;23;20016;-75
2022/01/29 01:35:18;;;;;;;0.00;0.00;;;10.40;99.90;;;;;;6223265;23;20098;-74
2022/01/29 01:37:52;;;;;;;0.00;0.00;;;10.50;99.90;;;;;;6225332;23;20422;-78
2022/01/29 01:40:19;;;;;;;0.00;0.00;;;10.40;99.90;;;;;;6221812;23;19993;-76
2022/01/29 01:42:46;;;;;;;0.00;0.00;;;10.50;99.90;;;;;;6221361;23;20019;-75
2022/01/29 01:45:11;;;;;;;0.00;0.00;;;10.50;99.90;;;;;;6224085;23;20005;-77
2022/01/29 01:47:37;;;;;;;0.00;0.00;;;10.50;99.90;;;;;;6223184;23;20035;-76
2022/01/29 01:50:05;;;;;;;0.00;0.00;;;10.50;99.90;;;;;;6223740;23;20520;-76
2022/01/29 01:52:31;;;;;;;0.00;0.00;;;10.50;99.90;;;;;;6231520;23;20005;-75
2022/01/29 01:54:56;;;;;;;0.00;0.00;;;10.40;99.90;;;;;;6230300;23;20004;-76
2022/01/29 01:57:22;;;;;;;0.00;0.00;;;10.40;99.90;;;;;;6236132;23;20014;-74
2022/01/29 01:59:48;;;;;;;0.00;0.00;;;10.50;99.90;;;;;;6237036;23;20028;-74
2022/01/29 02:02:14;;;;;;;0.00;0.00;;;10.40;99.90;;;;;;6235088;23;19997;-75
2022/01/29 02:04:39;;;;;;;0.00;0.00;;;10.40;99.90;;;;;;6237388;23;20004;-75
2022/01/29 02:07:05;;;;;;;0.00;0.00;;;10.40;99.90;;;;;;6235513;23;20016;-75
2022/01/29 02:09:32;;;;;;;0.00;0.00;;;10.40;99.90;;;;;;6233058;23;20001;-75
2022/01/29 02:12:01;;;;;;;0.00;0.00;;;10.40;99.90;;;;;;6234890;23;20090;-76
2022/01/29 02:14:31;;;;;;;0.00;0.00;;;10.40;99.90;;;;;;6235843;23;20001;-75
2022/01/29 02:17:01;;;;;;;0.00;0.00;;;10.40;99.90;;;;;;6234202;23;20004;-75
2022/01/29 02:19:28;;;;;;;0.00;0.00;;;10.40;99.90;;;;;;6236464;23;20358;-75
2022/01/29 02:21:54;;;;;;;;;;;10.40;99.90;;;;;;6235029;23;20000;-75
2022/01/29 02:24:19;;;;;;;0.00;0.00;;;10.40;99.90;;;;;;6236664;23;19911;-75
2022/01/29 02:26:45;;;;;;;0.00;0.00;;;10.40;99.90;;;;;;6236564;23;20008;-75
2022/01/29 02:29:11;;;;;;;0.00;0.00;;;10.40;99.90;;;;;;6235557;23;20338;-75
2022/01/29 02:31:49;;;;;;;0.00;0.00;;;10.40;99.90;;;;;;6240936;23;19992;-76
2022/01/29 02:34:15;;;;;;;0.00;0.00;;;10.40;99.90;;;;;;6242147;23;20012;-76
2022/01/29 02:36:42;;;;;;;0.00;0.00;;;10.40;99.90;;;;;;6235160;23;20001;-76
2022/01/29 02:39:13;;;;;;;0.00;0.00;;;10.50;99.90;;;;;;6240546;23;19996;-75
2022/01/29 02:41:42;;;;;;;0.00;0.00;;;10.50;99.90;;;;;;6236698;23;20000;-75
2022/01/29 02:44:09;;;;;;;0.00;0.00;;;10.50;99.90;;;;;;6224338;23;20001;-74
2022/01/29 02:49:13;;;;;;;0.00;0.00;;;10.50;99.90;;;;;;6220348;23;20005;-75
2022/01/29 02:51:50;;;;;;;0.00;0.00;;;10.50;99.90;;;;;;6219661;23;20080;-76
2022/01/29 02:54:16;;;;;;;0.00;0.00;;;10.50;99.90;;;;;;6220908;23;20056;-76
2022/01/29 02:56:43;;;;;;;0.00;0.00;;;10.50;99.90;;;;;;6231273;23;20008;-74
2022/01/29 02:59:09;;;;;;;0.00;0.00;;;10.50;99.90;;;;;;6239382;23;20060;-76
2022/01/29 03:01:35;;;;;;;;;;;10.50;99.90;;;;;;6221783;23;20001;-73
2022/01/29 03:04:01;;;;;;;0.00;0.00;;;10.50;99.90;;;;;;6222527;23;19990;-76
2022/01/29 03:06:27;;;;;;;0.00;0.00;;;10.50;99.90;;;;;;6222798;23;20005;-76
2022/01/29 03:08:53;;;;;;;0.00;0.00;;;10.50;99.90;;;;;;6219164;23;20003;-75
2022/01/29 03:11:19;;;;;;;0.00;0.00;;;10.50;99.90;;;;;;6221138;23;20024;-75
2022/01/29 03:13:48;;;;;;;0.00;0.00;;;10.50;99.90;;;;;;6220525;23;20008;-76
2022/01/29 03:16:14;;;;;;;0.00;0.00;;;10.40;99.90;;;;;;6219113;23;20010;-75
2022/01/29 03:18:40;;;;;;;0.00;0.00;;;10.40;99.90;;;;;;6219439;23;19993;-75
2022/01/29 03:21:06;;;;;;;0.00;0.00;;;10.40;99.90;;;;;;6218961;23;20001;-77
2022/01/29 03:23:32;;;;;;;0.00;0.00;;;10.50;99.90;;;;;;6218096;23;20008;-76
2022/01/29 03:25:57;;;;;;;0.00;0.00;;;10.50;99.90;;;;;;6220699;23;20074;-73
2022/01/29 03:28:23;;;;;;;0.00;0.00;;;10.40;99.90;;;;;;6216868;23;20005;-76
2022/01/29 03:30:49;;;;;;;0.00;0.00;;;10.50;99.90;;;;;;6217965;23;20128;-76
2022/01/29 03:33:14;;;;;;;0.00;0.00;;;10.50;99.90;;;;;;6218731;23;20008;-76
2022/01/29 03:35:40;;;;;;;0.00;0.00;;;10.50;99.90;;;;;;6217987;23;20357;-76
2022/01/29 03:38:06;;;;;;;0.00;0.00;;;10.50;99.90;;;;;;6220121;23;19993;-76
2022/01/29 03:40:33;;;;;;;0.00;0.00;;;10.50;99.90;;;;;;6231720;23;19997;-74
2022/01/29 03:43:10;;;;;;;0.00;0.00;;;10.50;99.90;;;;;;6239023;23;20005;-74
2022/01/29 03:45:36;;;;;;;0.00;0.00;;;10.50;99.90;;;;;;6238695;23;20012;-75
2022/01/29 03:48:02;;;;;;;;;;;10.50;99.90;;;;;;6237092;23;20080;-75
2022/01/29 03:50:28;;;;;;;0.00;0.00;;;10.50;99.90;;;;;;6236175;23;19899;-75
2022/01/29 03:52:54;;;;;;;0.00;0.00;;;10.50;99.90;;;;;;6237272;23;19997;-77
2022/01/29 03:55:20;;;;;;;0.00;0.00;;;10.50;99.90;;;;;;6234163;23;20048;-75
2022/01/29 03:57:45;;;;;;;;;;;10.50;99.90;;;;;;6227155;23;20001;-77
2022/01/29 04:00:12;;;;;;;0.00;0.00;;;10.50;99.90;;;;;;6219791;23;19911;-74
2022/01/29 04:02:38;;;;;;;0.00;0.00;;;10.50;99.90;;;;;;6218022;23;20043;-75
2022/01/29 04:05:04;;;;;;;0.00;0.00;;;10.60;99.90;;;;;;6219588;23;20005;-77
2022/01/29 04:07:30;;;;;;;0.00;0.00;;;10.60;99.90;;;;;;6219988;23;20075;-76
2022/01/29 04:09:56;;;;;;;0.00;0.00;;;10.60;99.90;;;;;;6220561;23;19997;-76
2022/01/29 04:12:24;;;;;;;0.00;0.00;;;10.60;99.90;;;;;;6219550;23;20035;-76
2022/01/29 04:14:53;;;;;;;0.00;0.00;;;10.70;99.90;;;;;;6214569;23;20014;-76
2022/01/29 04:17:19;;;;;;;0.00;0.00;;;10.70;99.90;;;;;;6218977;23;20077;-76
2022/01/29 04:19:44;;;;;;;0.00;0.00;;;10.70;99.90;;;;;;6221676;23;19997;-76
2022/01/29 04:22:10;;;;;;;0.00;0.00;;;10.70;99.90;;;;;;6219866;23;20016;-76
2022/01/29 04:24:36;;;;;;;0.00;0.00;;;10.70;99.90;;;;;;6217426;23;20225;-76
2022/01/29 04:27:04;;;;;;;0.00;0.00;;;10.70;99.90;;;;;;6218987;23;20063;-75
2022/01/29 04:29:40;;;;;;;0.00;0.00;;;10.70;99.90;;;;;;6218274;23;20069;-75
2022/01/29 04:32:14;;;;;;;0.00;0.00;;;10.70;99.90;;;;;;6219322;23;20032;-75
2022/01/29 04:34:39;;;;;;;0.00;0.00;;;10.70;99.90;;;;;;6218341;23;20064;-75
2022/01/29 04:37:06;;;;;;;0.00;0.00;;;10.60;99.90;;;;;;6216462;23;19996;-75
2022/01/29 04:39:32;;;;;;;0.00;0.00;;;10.60;99.90;;;;;;6217617;23;19997;-76
2022/01/29 04:41:57;;;;;;;0.00;0.00;;;10.70;99.90;;;;;;6218423;23;20040;-76
2022/01/29 04:44:23;;;;;;;0.00;0.00;;;10.70;99.90;;;;;;6221529;23;20005;-76
2022/01/29 04:46:51;;;;;;;0.00;0.00;;;10.70;99.90;;;;;;6219814;23;19996;-76
2022/01/29 04:49:17;;;;;;;0.00;0.00;;;10.70;99.90;;;;;;6218685;23;20116;-77
2022/01/29 04:51:43;;;;;;;0.00;0.00;;;10.70;99.90;;;;;;6223837;23;20000;-77
2022/01/29 04:54:08;;;;;;;0.00;0.00;;;10.80;99.90;;;;;;6218025;23;20046;-76
2022/01/29 04:56:34;;;;;;;0.00;0.00;;;10.80;99.90;;;;;;6219397;23;20123;-75
2022/01/29 04:59:00;;;;;;;;;;;10.80;99.90;;;;;;6220914;23;20007;-77
2022/01/29 05:01:26;;;;;;;0.00;0.00;;;10.80;99.90;;;;;;6224671;23;19928;-76
2022/01/29 05:03:52;;;;;;;0.00;0.00;;;10.80;99.90;;;;;;6228936;23;19997;-75
2022/01/29 05:06:19;;;;;;;0.00;0.00;;;10.70;99.90;;;;;;6233778;23;20015;-76
2022/01/29 05:08:44;;;;;;;0.00;0.00;;;10.80;99.90;;;;;;6233408;23;20080;-77
2022/01/29 05:11:11;;;;;;;0.00;0.00;;;10.80;99.90;;;;;;6223953;23;20000;-77
2022/01/29 05:13:39;;;;;;;0.00;0.00;;;10.80;99.90;;;;;;6224933;23;20020;-77
2022/01/29 05:27:04;;;;;;;0.00;0.00;;;10.70;99.90;;;;;;6236118;23;20016;-75
2022/01/29 05:29:32;;;;;;;0.00;0.00;;;10.70;99.90;;;;;;6237159;23;20417;-76
2022/01/29 05:31:59;;;;;;;0.00;0.00;;;10.70;99.90;;;;;;6238884;23;20019;-76
2022/01/29 05:34:25;;;;;;;0.00;0.00;;;10.70;99.90;;;;;;6238804;23;19997;-76
2022/01/29 05:36:50;;;;;;;0.00;0.00;;;10.70;99.90;;;;;;6239026;23;19995;-76
2022/01/29 05:39:17;;;;;;;0.00;0.00;;;10.60;99.90;;;;;;6239554;23;20007;-75
2022/01/29 05:41:43;;;;;;;0.00;0.00;;;10.60;99.90;;;;;;6234827;23;20004;-76
2022/01/29 05:44:08;;;;;;;0.00;0.00;;;10.60;99.90;;;;;;6236147;23;20004;-77
2022/01/29 05:46:34;;;;;;;0.00;0.00;;;10.60;99.90;;;;;;6236056;23;20008;-75
2022/01/29 05:49:00;;;;;;;0.00;0.00;;;10.60;99.90;;;;;;6234745;23;20063;-76
2022/01/29 05:51:29;;;;;;;0.00;0.00;;;10.70;99.90;;;;;;6229475;23;20000;-77
2022/01/29 05:53:57;;;;;;;0.00;0.00;;;10.70;99.90;;;;;;6227369;23;20091;-77
2022/01/29 05:56:23;;;;;;;0.00;0.00;;;10.70;99.90;;;;;;6227225;23;20081;-77
2022/01/29 05:58:49;;;;;;;0.00;0.00;;;10.70;99.90;;;;;;6226596;23;20004;-76
2022/01/29 06:01:14;;;;;;;0.00;0.00;;;10.70;99.90;;;;;;6226483;23;20028;-76
2022/01/29 06:03:40;;;;;;;0.00;0.00;;;10.70;99.90;;;;;;6225416;23;20007;-75
2022/01/29 06:06:05;;;;;;;0.00;0.00;;;10.70;99.90;;;;;;6213485;23;20075;-74
2022/01/29 06:08:31;;;;;;;0.00;0.00;;;10.70;99.90;;;;;;6213683;23;20020;-74
2022/01/29 06:10:57;;;;;;;0.00;0.00;;;10.70;99.90;;;;;;6212550;23;19996;-74
2022/01/29 06:13:23;;;;;;;0.00;0.00;;;10.70;99.90;;;;;;6213333;23;20005;-74
2022/01/29 06:15:50;;;;;;;0.00;0.00;;;10.70;99.90;;;;;;6237244;23;20005;-74
2022/01/29 06:18:19;;;;;;;0.00;0.00;;;10.70;99.90;;;;;;6214646;23;20001;-75
2022/01/29 06:20:46;;;;;;;0.00;0.00;;;10.60;99.90;;;;;;6215365;23;20000;-75
2022/01/29 06:23:14;;;;;;;0.00;0.00;;;10.60;99.90;;;;;;6214751;23;20028;-76
2022/01/29 06:25:40;;;;;;;0.00;0.00;;;10.60;99.90;;;;;;6212878;23;20436;-75
2022/01/29 06:28:05;;;;;;;0.00;0.00;;;10.60;99.90;;;;;;6214127;23;20046;-77
2022/01/29 06:30:31;;;;;;;0.00;0.00;;;10.70;99.90;;;;;;6213364;23;20004;-75
2022/01/29 06:33:09;;;;;;;0.00;0.00;;;10.70;99.90;;;;;;6214011;23;20000;-75
2022/01/29 06:35:36;;;;;;;0.00;0.00;;;10.60;99.90;;;;;;6212455;23;20012;-76
2022/01/29 06:38:02;;;;;;;0.00;0.00;;;10.60;99.90;;;;;;6213314;23;20329;-74
2022/01/29 06:40:28;;;;;;;0.00;0.00;;;10.60;99.90;;;;;;6216257;23;20449;-76
2022/01/29 06:42:56;;;;;;;0.00;0.00;;;10.60;99.90;;;;;;6219675;23;20020;-76
2022/01/29 06:45:22;;;;;;;0.00;0.00;;;10.60;99.90;;;;;;6216207;23;20036;-76
2022/01/29 06:47:48;;;;;;;0.00;0.00;;;10.60;99.90;;;;;;6218491;23;20438;-76
2022/01/29 06:50:14;;;;;;;0.00;0.00;;;10.60;99.90;;;;;;6218780;23;20024;-76
2022/01/29 06:52:39;;;;;;;0.00;0.00;;;10.60;99.90;;;;;;6219266;23;20005;-76
2022/01/29 06:55:05;;;;;;;0.00;0.00;;;10.60;99.90;;;;;;6218661;23;20099;-76
2022/01/29 06:57:31;;;;;;;0.00;0.00;;;10.60;99.90;;;;;;6220552;23;20122;-75
2022/01/29 06:59:57;;;;;;;0.00;0.00;;;10.60;99.90;;;;;;6219320;23;20004;-75
2022/01/29 07:02:22;;;;;;;0.00;0.00;;;10.60;99.90;;;;;;6216711;23;20005;-76
2022/01/29 07:04:48;;;;;;;0.00;0.00;;;10.60;99.90;;;;;;6217564;23;20147;-74
2022/01/29 07:07:14;;;;;;;0.00;0.00;;;10.60;99.90;;;;;;6219108;23;20050;-76
2022/01/29 07:09:40;;;;;;;0.00;0.00;;;10.60;99.90;;;;;;6218178;23;20012;-76
2022/01/29 07:12:10;;;;;;;0.00;0.00;;;10.60;99.90;;;;;;6220015;23;20020;-75
2022/01/29 07:14:39;;;;;;;0.00;0.00;;;10.60;99.90;;;;;;6220234;23;20011;-75
2022/01/29 07:17:10;;;;;;;0.00;0.00;;;10.60;99.90;;;;;;6218132;23;20028;-75
2022/01/29 07:19:36;;;;;;;0.00;0.00;;;10.60;99.90;;;;;;6218674;23;19996;-74
2022/01/29 07:22:02;;;;;;;0.00;0.00;;;10.60;99.90;;;;;;6219576;23;20039;-75
2022/01/29 07:24:27;;;;;;;;;;;10.60;99.90;;;;;;6221311;23;20004;-76
2022/01/29 07:26:53;;;;;;;0.00;0.00;;;10.60;99.90;;;;;;6218750;23;19899;-75
2022/01/29 07:29:19;;;;;;;0.00;0.00;;;10.60;99.90;;;;;;6217563;23;20001;-75
2022/01/29 07:31:44;;;;;;;0.00;0.00;;;10.60;99.90;;;;;;6218072;23;20337;-75
2022/01/29 07:34:10;;;;;;;0.00;0.00;;;10.60;99.90;;;;;;6218402;23;20380;-77
2022/01/29 07:36:36;;;;;;;0.00;0.00;;;10.70;99.90;;;;;;6214555;23;20429;-76
2022/01/29 07:39:02;;;;;;;0.00;0.00;;;10.70;99.90;;;;;;6228698;23;20007;-75
2022/01/29 07:41:28;;;;;;;0.00;0.00;;;10.60;99.90;;;;;;6224666;23;20020;-76
2022/01/29 07:43:54;;;;;;;0.00;0.00;;;10.60;99.90;;;;;;6224230;23;20001;-76
2022/01/29 07:46:19;;;;;;;0.00;0.00;;;10.60;99.90;;;;;;6227157;23;20493;-77
2022/01/29 07:48:45;;;;;;;0.00;0.00;;;10.70;99.90;;;;;;6223687;23;20001;-76
2022/01/29 07:51:11;;;;;;;0.00;0.00;;;10.70;99.90;;;;;;6221682;23;20080;-76
2022/01/29 07:53:36;;;;;;;0.00;0.00;;;10.70;99.90;;;;;;6220429;23;20000;-76
2022/01/29 07:56:02;;;;;;;0.00;0.00;;;10.70;99.90;;;;;;6217431;23;20119;-76
2022/01/29 07:58:28;;;;;;;0.00;0.00;;;10.70;99.90;;;;;;6217102;23;20440;-75
2022/01/29 08:00:54;;;;;;;0.00;0.00;;;10.70;99.90;;;;;;6215105;23;20329;-73
2022/01/29 08:03:19;;;;;;;0.00;0.00;;;10.70;99.90;;;;;;6214503;23;20035;-75
2022/01/29 08:05:45;;;;;;;0.00;0.00;;;10.70;99.90;;;;;;6213308;23;20071;-75
2022/01/29 08:08:11;;;;;;;0.00;0.00;;;10.70;99.90;;;;;;6214371;23;20424;-74
2022/01/29 08:10:36;;;;;;;0.00;0.00;;;10.70;99.90;;;;;;6214790;23;20004;-75
2022/01/29 08:13:02;;;;;;;0.00;0.00;;;10.70;99.90;;;;;;6215944;23;20028;-77
2022/01/29 08:15:28;;;;;;;0.00;0.00;;;10.70;99.90;;;;;;6212886;23;20004;-77
2022/01/29 08:17:54;;;;;;;0.00;0.00;;;10.70;99.90;;;;;;6215955;23;20000;-75
2022/01/29 08:20:20;;;;;;;0.00;0.00;;;10.70;99.90;;;;;;6214115;23;20012;-76
2022/01/29 08:22:47;;;;;;;0.00;0.00;;;10.70;99.90;;;;;;6214920;23;20007;-74
2022/01/29 08:25:13;;;;;;;0.00;0.00;;;10.70;99.90;;;;;;6215221;23;20467;-75
2022/01/29 08:27:39;;;;;;;0.00;0.00;;;10.70;99.90;;;;;;6215436;23;19996;-76
2022/01/29 08:30:06;;;;;;;0.00;0.00;;;10.70;99.90;;;;;;6214141;23;20004;-74
2022/01/29 08:32:31;;;;;;;0.00;0.00;;;10.70;99.90;;;;;;6215860;23;20004;-75
2022/01/29 08:34:57;;;;;;;0.00;0.00;;;10.80;99.90;;;;;;6215528;23;20000;-75
2022/01/29 08:37:24;;;;;;;0.00;0.00;;;10.80;99.90;;;;;;6216132;23;20004;-76
2022/01/29 08:39:49;;;;;;;0.00;0.00;;;10.80;99.90;;;;;;6215599;23;20556;-76
2022/01/29 08:42:15;;;;;;;0.00;0.00;;;10.80;99.90;;;;;;6214016;23;20000;-76
2022/01/29 08:44:42;;;;;;;0.00;0.00;;;10.80;99.90;;;;;;6213341;23;20438;-75
2022/01/29 08:47:08;;;;;;;0.00;0.00;;;10.80;99.90;;;;;;6213146;23;19997;-76
2022/01/29 08:49:34;;;;;;;0.00;0.00;;;10.90;99.90;;;;;;6214548;23;20004;-76
2022/01/29 08:51:59;;;;;;;0.00;0.00;;;10.90;99.90;;;;;;6215771;23;20004;-76
2022/01/29 08:54:25;;;;;;;0.00;0.00;;;10.80;99.90;;;;;;6215345;23;20011;-77
2022/01/29 08:56:51;;;;;;;0.00;0.00;;;10.90;99.90;;;;;;6218126;23;20151;-77
2022/01/29 08:59:17;;;;;;;0.00;0.00;;;10.90;99.90;;;;;;6221844;23;19993;-75
2022/01/29 09:01:43;;;;;;;0.00;0.00;;;10.90;99.90;;;;;;6219240;23;20074;-77
2022/01/29 09:04:08;;;;;;;0.00;0.00;;;10.90;99.90;;;;;;6227779;23;20005;-77
2022/01/29 09:06:34;;;;;;;0.00;0.00;;;10.90;99.90;;;;;;6232428;23;20009;-77
2022/01/29 09:09:00;;;;;;;0.00;0.00;;;10.90;99.90;;;;;;6233588;23;20065;-76
2022/01/29 09:11:26;;;;;;;0.00;0.00;;;10.90;99.90;;;;;;6236827;23;20005;-77
2022/01/29 09:13:51;;;;;;;0.00;0.00;;;10.90;99.90;;;;;;6236179;23;20011;-77
2022/01/29 09:16:17;;;;;;;0.00;0.00;;;10.80;99.90;;;;;;6231447;23;19997;-76
2022/01/29 09:18:43;;;;;;;0.00;0.00;;;10.80;99.90;;;;;;6231935;23;19984;-76
2022/01/29 09:21:10;;;;;;;0.00;0.00;;;10.90;99.90;;;;;;6236339;23;20036;-78
2022/01/29 09:23:35;;;;;;;0.00;0.00;;;10.90;99.90;;;;;;6233583;23;19997;-78
2022/01/29 09:26:04;;;;;;;0.00;0.00;;;10.90;99.90;;;;;;6240115;23;20007;-78
2022/01/29 09:28:33;;;;;;;0.00;0.00;;;11.00;99.90;;;;;;6236562;23;20256;-78
2022/01/29 09:30:59;;;;;;;0.00;0.00;;;11.00;99.90;;;;;;6239918;23;20031;-76
2022/01/29 09:33:27;;;;;;;0.00;0.00;;;11.00;99.90;;;;;;6231705;23;20481;-77
2022/01/29 09:35:53;;;;;;;0.00;0.00;;;10.90;99.90;;;;;;6219544;23;20373;-77
2022/01/29 09:38:19;;;;;;;0.00;0.00;;;10.90;99.90;;;;;;6222236;23;20077;-78
2022/01/29 09:40:45;;;;;;;0.00;0.00;;;11.00;99.90;;;;;;6221457;23;19992;-78
2022/01/29 09:43:11;;;;;;;0.00;0.00;;;11.00;99.90;;;;;;6218253;23;20079;-77
2022/01/29 09:45:38;;;;;;;0.00;0.00;;;11.00;99.90;;;;;;6221401;23;20012;-77
2022/01/29 09:48:04;;;;;;;0.00;0.00;;;10.90;99.90;;;;;;6222174;23;20319;-77
2022/01/29 09:50:33;;;;;;;0.00;0.00;;;10.90;99.90;;;;;;6221541;23;20003;-77
2022/01/29 09:53:00;;;;;;;0.00;0.00;;;10.90;99.90;;;;;;6230063;23;20008;-77
2022/01/29 09:55:26;;;;;;;0.00;0.00;;;10.90;99.90;;;;;;6224989;23;20502;-76
2022/01/29 09:57:56;;;;;;;0.00;0.00;;;10.90;99.90;;;;;;6226068;23;20058;-78
2022/01/29 10:00:22;;;;;;;0.00;0.00;;;11.00;99.90;;;;;;6221299;23;20007;-78
2022/01/29 10:03:20;;;;;;;;;;;11.00;99.90;;;;;;6224304;23;20058;-77
2022/01/29 10:05:53;;;;;;;0.00;0.00;;;10.90;99.90;;;;;;6155392;23;19907;-76
2022/01/29 10:08:20;;;;;;;0.00;0.00;;;10.90;99.90;;;;;;6216281;23;20005;-78
2022/01/29 10:10:45;;;;;;;0.00;0.00;;;10.90;99.90;;;;;;6217979;23;20480;-79
2022/01/29 10:13:31;;;;;;;0.00;0.00;;;11.00;99.90;;;;;;6214284;23;20036;-75
2022/01/29 10:16:19;;;;;;;0.00;0.00;;;11.00;99.90;;;;;;6213358;23;19997;-76
2022/01/29 10:18:59;;;;;;;0.00;0.00;;;11.00;99.90;;;;;;6213990;23;20023;-76
2022/01/29 10:21:28;;;;;;;0.00;0.00;;;11.10;99.90;;;;;;6210936;23;20016;-75
2022/01/29 10:24:05;;;;;;;0.00;0.00;;;11.00;99.90;;;;;;6211369;23;20004;-74
2022/01/29 10:26:36;;;;;;;0.00;0.00;;;11.00;99.90;;;;;;6212825;23;20112;-74
2022/01/29 10:29:08;;;;;;;0.00;0.00;;;11.10;99.90;;;;;;6211554;23;20384;-76
2022/01/29 10:31:45;;;;;;;0.00;0.00;;;11.20;99.90;;;;;;6214027;23;20012;-76
2022/01/29 10:34:26;;;;;;;0.00;0.00;;;11.30;99.90;;;;;;6186272;23;20392;-76
2022/01/29 10:37:16;;;;;;;0.00;0.00;;;11.20;99.90;;;;;;6212821;23;20291;-76
2022/01/29 10:39:48;;;;;;;0.00;0.00;;;11.20;99.90;;;;;;6214802;23;20026;-76
2022/01/29 10:42:19;;;;;;;0.00;0.00;;;11.30;99.90;;;;;;6214484;23;20310;-78
2022/01/29 10:44:47;;;;;;;0.00;0.00;;;11.20;99.90;;;;;;6216763;23;20016;-76
2022/01/29 10:47:13;;;;;;;0.00;0.00;;;11.10;99.90;;;;;;6216698;23;19993;-75
2022/01/29 10:49:48;;;;;;;0.00;0.00;;;11.10;99.90;;;;;;6216489;23;20015;-74
2022/01/29 10:52:15;;;;;;;0.00;0.00;;;11.00;99.90;;;;;;6218458;23;20079;-77
2022/01/29 10:54:44;;;;;;;0.00;0.00;;;11.00;99.90;;;;;;6218429;23;20024;-76
2022/01/29 10:57:12;;;;;;;0.00;0.00;;;10.90;99.90;;;;;;6218491;23;20012;-75
2022/01/29 10:59:50;;;;;;;0.00;0.00;;;10.80;99.90;;;;;;6217125;23;20000;-74
2022/01/29 11:02:18;;;;;;;0.00;0.00;;;10.80;99.90;;;;;;6217482;23;20077;-76
2022/01/29 11:04:44;;;;;;;0.00;0.00;;;10.80;99.90;;;;;;6219976;23;20016;-76
2022/01/29 11:07:16;;;;;;;0.00;0.00;;;10.80;99.90;;;;;;6219809;23;19999;-75
2022/01/29 11:09:48;;;;;;;0.00;0.00;;;10.80;99.90;;;;;;6221487;23;20004;-76
2022/01/29 11:12:18;;;;;;;0.00;0.00;;;10.80;99.90;;;;;;6223505;23;19996;-77
2022/01/29 11:14:45;;;;;;;0.00;0.00;;;10.70;99.90;;;;;;6223307;23;20020;-75
2022/01/29 11:17:12;;;;;;;0.00;0.00;;;10.70;99.90;;;;;;6221322;23;20420;-76
2022/01/29 11:19:39;;;;;;;0.00;0.00;;;10.60;99.90;;;;;;6228502;23;20009;-76
2022/01/29 11:22:07;;;;;;;0.00;0.00;;;10.60;99.90;;;;;;6222545;23;20011;-76
2022/01/29 11:24:36;;;;;;;0.00;0.00;;;10.70;99.90;;;;;;6224703;23;20017;-76
2022/01/29 11:27:03;;;;;;;0.00;0.00;;;10.60;99.90;;;;;;6223966;23;20004;-77
2022/01/29 11:29:34;;;;;;;0.00;0.00;;;10.70;99.90;;;;;;6229750;23;19984;-75
2022/01/29 11:32:22;;;;;;;0.00;0.00;;;10.70;99.90;;;;;;6234965;23;20004;-75
2022/01/29 11:35:15;;;;;;;0.00;0.00;;;10.60;99.90;;;;;;6235839;23;20021;-76
2022/01/29 11:37:43;;;;;;;0.00;0.00;;;10.70;99.90;;;;;;6235250;23;20060;-76
2022/01/29 11:40:37;;;;;;;0.00;0.00;;;10.60;99.90;;;;;;6235859;23;19993;-75
2022/01/29 11:43:14;;;;;;;0.00;0.00;;;10.60;99.90;;;;;;6234969;23;20012;-76
2022/01/29 11:45:48;;;;;;;0.00;0.00;;;10.60;99.90;;;;;;6238529;23;20033;-74
2022/01/29 11:48:26;;;;;;;0.00;0.00;;;10.60;99.90;;;;;;6239486;23;20083;-76
2022/01/29 11:50:54;;;;;;;0.00;0.00;;;10.70;99.90;;;;;;6236399;23;20000;-77
2022/01/29 11:53:21;;;;;;;0.00;0.00;;;10.70;99.90;;;;;;6237212;23;20032;-76
2022/01/29 11:55:53;;;;;;;0.00;0.00;;;10.70;99.90;;;;;;6238847;23;20019;-75
2022/01/29 11:58:27;;;;;;;0.00;0.00;;;10.70;99.90;;;;;;6238143;23;20027;-75
2022/01/29 12:00:58;;;;;;;0.00;0.00;;;10.70;99.90;;;;;;6235503;23;20001;-76
2022/01/29 12:03:33;;;;;;;0.00;0.00;;;10.70;99.90;;;;;;6233744;23;20008;-75
2022/01/29 12:06:09;;;;;;;0.00;0.00;;;10.70;99.90;;;;;;6232222;23;20028;-76
2022/01/29 12:08:41;;;;;;;0.00;0.00;;;10.70;99.90;;;;;;6230266;23;20000;-75
2022/01/29 12:11:13;;;;;;;0.00;0.00;;;10.60;99.90;;;;;;6229736;23;20099;-77
2022/01/29 12:13:42;;;;;;;0.00;0.00;;;10.70;99.90;;;;;;6219263;23;20050;-75
2022/01/29 12:16:47;;;;;;;0.00;0.00;;;10.70;99.90;;;;;;6217250;23;19997;-77
2022/01/29 12:19:44;;;;;;;0.00;0.00;;;10.70;99.90;;;;;;6236505;23;19991;-76
2022/01/29 12:22:15;;;;;;;0.00;0.00;;;10.80;99.90;;;;;;6239677;23;20002;-76
2022/01/29 12:24:47;;;;;;;0.00;0.00;;;10.80;99.90;;;;;;6240595;23;20003;-75
2022/01/29 12:27:14;;;;;;;0.00;0.00;;;10.80;99.90;;;;;;6241303;23;19985;-77
2022/01/29 12:29:39;;;;;;;0.00;0.00;;;10.80;99.90;;;;;;6240416;23;19988;-76
2022/01/29 12:32:08;;;;;;;0.00;0.00;;;10.90;99.90;;;;;;6239353;23;20000;-75
2022/01/29 12:34:33;;;;;;;0.00;0.00;;;10.90;99.90;;;;;;6241790;23;19989;-77
2022/01/29 12:37:13;;;;;;;0.00;0.00;;;10.90;99.90;;;;;;6239856;23;19996;-77
2022/01/29 12:39:46;;;;;;;0.00;0.00;;;10.90;99.90;;;;;;6241404;23;19985;-77
2022/01/29 12:45:00;;;;;;;0.00;0.00;;;11.00;99.90;;;;;;6237692;23;19997;-76
2022/01/29 12:47:28;;;;;;;0.00;0.00;;;11.00;99.90;;;;;;6236278;23;20004;-78
2022/01/29 12:49:54;;;;;;;0.00;0.00;;;11.10;99.90;;;;;;6233709;23;20353;-78
2022/01/29 12:52:59;;;;;;;0.00;0.00;;;11.10;99.90;;;;;;6239258;23;20005;-78
2022/01/29 12:55:25;;;;;;;0.00;0.00;;;11.10;99.90;;;;;;6238574;23;20005;-78
2022/01/29 12:57:51;;;;;;;0.00;0.00;;;11.00;99.90;;;;;;6237921;23;20074;-76
2022/01/29 13:00:19;;;;;;;0.00;0.00;;;11.10;99.90;;;;;;6236683;23;19989;-77
2022/01/29 13:02:46;;;;;;;0.00;0.00;;;11.10;99.90;;;;;;6231478;23;20067;-76
2022/01/29 13:05:12;;;;;;;0.00;0.00;;;11.20;99.90;;;;;;6221166;23;20386;-77
2022/01/29 13:07:39;;;;;;;0.00;0.00;;;11.30;99.90;;;;;;6214871;23;20011;-77